EHEH/EIN METAR and TAF weather

Enter ICAO airport designator
Station Type Date Time Source
EHEH METAR 2019/02/23 16:55 UTC NOAA

EHEH 231655Z AUTO 11006KT 080V150 9999 FEW380 11/02 Q1036 BLU 12008KT CAVOK


Station Type Date Time Source
EHEH Decoded METAR 2019/02/23 16:55 UTC NOAA

Eindhoven, Netherlands (EHEH) 51-27N 005-25E 28M
Feb 23, 2019 - 11:55 AM EST / 2019.02.23 1655 UTC
Wind: from the ESE (110 degrees) at 7 MPH (6 KT) (direction variable):0
Visibility: greater than 7 mile(s):0
Sky conditions: mostly clear
Temperature: 51 F (11 C)
Dew Point: 35 F (2 C)
Relative Humidity: 53%
Pressure (altimeter): 30.59 in. Hg (1036 hPa)
ob: EHEH 231655Z AUTO 11006KT 080V150 9999 FEW380 11/02 Q1036 BLU 12008KT CAVOK
cycle: 17

Station Type Date Time Source
EHEH TAF 2019/02/23 12:12 UTC NOAA

TAF TAF EHEH 231101Z 2312/2418 12007KT CAVOK
BECMG 2405/2408 VRB02KT


Example: see airport list